Terminal Aerodrome Forecast
Issued by NWS Tampa Bay Area, FL

Home | Current Version | Previous Version | Text Only | Print | Product List | Glossary On
Versions: 1 2 3 4 5 6 7 8 9 10 11 12 13 14 15
207
FTUS42 KTBW 222331
TAFFMY
TAF
KFMY 222331Z 2300/2324 VRB03KT P6SM FEW030 BKN250
     FM231400 16006KT P6SM VCTS SCT030CB BKN100
     FM231800 23007KT P6SM VCTS SCT030CB BKN100
     FM232200 25007KT P6SM SCT050 BKN200=

USA.gov is the U.S. government's official web portal to all federal, state and local government web resources and services.